ADDS METAR Data INFO
IDs: Format: Raw Decoded Include TAF

Data at: 2028 UTC 20 Jul 2018

KFFC 201953Z AUTO 00000KT 10SM FEW033 SCT060 30/22 A2998 RMK AO2 SLP146 T03000217
KFFC 201853Z AUTO 10007KT 10SM FEW030 SCT047 SCT060 30/22 A3000 RMK AO2 SLP152 T03000222
KFFC 201806Z AUTO 10007KT 10SM SCT023 BKN060 29/23 A3002 RMK AO2 T02890228
KFFC 201753Z AUTO 11007KT 10SM BKN023 OVC060 29/23 A3002 RMK AO2 SLP157 60001 T02890228 10294 20244 55007
KFFC 201749Z AUTO 10006KT 10SM BKN023 BKN060 29/22 A3002 RMK AO2
KFFC 201653Z AUTO 05006KT 10SM FEW020 SCT026 OVC055 28/22 A3003 RMK AO2 SLP161 T02780222
KFFC 201634Z AUTO 07005KT 10SM SCT020 BKN026 BKN060 28/22 A3003 RMK AO2 T02780217
KFFC 201553Z AUTO 04005KT 10SM FEW027 SCT049 BKN055 28/23 A3004 RMK AO2 RAE06 SLP165 P0001 T02780228
KFFC 201545Z AUTO 07005KT 10SM FEW016 BKN028 OVC055 27/23 A3004 RMK AO2 RAE06 P0001 T02670228
KFFC 201453Z AUTO 05006KT 8SM -RA FEW014 BKN035 OVC044 26/22 A3005 RMK AO2 RAB53 SLP168 P0000 60000 T02610222 53013
KFFC 201441Z AUTO 01004KT 10SM FEW014 BKN033 OVC048 26/22 A3005 RMK AO2 T02610222
KFFC 201353Z AUTO 01006KT 10SM SCT010 SCT018 OVC029 26/23 A3003 RMK AO2 SLP163 T02610228
KFFC 201253Z AUTO 08004KT 10SM FEW008 BKN021 OVC027 24/23 A3002 RMK AO2 SLP159 T02440228
KFFC 201208Z AUTO VRB03KT 10SM FEW009 OVC022 24/23 A3001 RMK AO2 T02440228
KFFC 201153Z AUTO 04003KT 10SM OVC020 24/23 A3001 RMK AO2 SLP155 70025 T02440228 10244 20233 51013
KFFC 201131Z AUTO 00000KT 10SM SCT012 OVC018 24/23 A3001 RMK AO2 T02390228
KFFC 201120Z AUTO 00000KT 10SM BKN012 OVC021 24/23 A3000 RMK AO2 T02390228
KFFC 201053Z AUTO VRB04KT 10SM OVC009 24/23 A3000 RMK AO2 CIG 005V012 SLP150 T02390228
KFFC 201051Z AUTO 01003KT 10SM OVC009 24/23 A3000 RMK AO2 CIG 005V012
KFFC 201032Z AUTO 00000KT 10SM SCT007 BKN012 OVC023 24/23 A2999 RMK AO2 T02390228
KFFC 200953Z AUTO 08003KT 10SM BKN007 OVC025 24/23 A2997 RMK AO2 CIG 004V010 SLP140 T02390228
KFFC 200949Z AUTO 07003KT 10SM BKN007 BKN011 OVC025 24/23 A2997 RMK AO2
KFFC 200940Z AUTO 00000KT 10SM SCT007 BKN013 OVC026 24/23 A2997 RMK AO2 T02390228
KFFC 200920Z AUTO 02003KT 10SM SCT005 BKN021 OVC027 24/23 A2997 RMK AO2 T02390228
KFFC 200853Z AUTO 00000KT 10SM SCT012 BKN019 OVC026 24/23 A2996 RMK AO2 SLP138 T02390228 56005
KFFC 200826Z AUTO 00000KT 10SM FEW010 OVC016 24/23 A2997 RMK AO2 T02390228
KFFC 200808Z AUTO 00000KT 10SM BKN012 24/23 A2997 RMK AO2 T02390228
KFFC 200759Z AUTO 00000KT 10SM SCT010 24/23 A2997 RMK AO2 T02390228
KFFC 200753Z AUTO 00000KT 10SM BKN010 BKN020 24/23 A2997 RMK AO2 CIG 008V013 SLP140 T02390228
KFFC 200749Z AUTO 00000KT 10SM BKN010 BKN020 24/23 A2997 RMK AO2 CIG 008V013
KFFC 200723Z AUTO 09003KT 10SM SCT009 24/23 A2998 RMK AO2 T02390228
KFFC 200653Z AUTO 00000KT 10SM CLR 24/23 A2998 RMK AO2 SLP143 T02390228
KFFC 200553Z AUTO 04003KT 10SM CLR 24/23 A3000 RMK AO2 SLP149 60018 T02390228 10250 20233 58002
KFFC 200529Z AUTO 08003KT 10SM FEW006 24/22 A3000 RMK AO2 T02390222
KFFC 200453Z AUTO 00000KT 10SM SCT021 23/23 A3000 RMK AO2 SLP151 T02330228 403330217
KFFC 200435Z AUTO 00000KT 10SM BKN021 24/22 A3001 RMK AO2 T02390222
KFFC 200419Z AUTO 00000KT 10SM SCT023 23/22 A3001 RMK AO2 T02330222
KFFC 200410Z AUTO 00000KT 10SM BKN023 23/22 A3001 RMK AO2 T02330222
KFFC 200353Z AUTO 00000KT 10SM FEW012 23/22 A3002 RMK AO2 SLP157 T02330222
KFFC 200326Z AUTO 00000KT 10SM SCT008 23/22 A3001 RMK AO2 T02330222
KFFC 200253Z AUTO 00000KT 10SM BKN009 23/22 A3000 RMK AO2 RAE09 CIG 006V011 SLP152 P0000 60018 T02330222 56001
KFFC 200248Z AUTO 00000KT 10SM BKN009 BKN013 23/22 A3000 RMK AO2 RAE09 P0000
KFFC 200240Z AUTO 00000KT 10SM SCT009 BKN014 BKN120 23/22 A3001 RMK AO2 RAE09 P0000 T02330222
KFFC 200221Z AUTO 12005KT 10SM SCT009 SCT014 BKN120 23/22 A3001 RMK AO2 RAE09 P0000 T02330222
KFFC 200205Z AUTO 12006KT 10SM -RA BKN009 BKN055 OVC120 23/22 A3001 RMK AO2 P0000 T02330222
KFFC 200153Z AUTO 13007KT 10SM -RA SCT007 BKN065 BKN120 23/22 A3000 RMK AO2 SLP152 P0010 T02330222
KFFC 200146Z AUTO 14006KT 7SM -RA BKN008 BKN060 OVC110 23/23 A3001 RMK AO2 P0010 T02330228
KFFC 200126Z AUTO 13006KT 4SM RA BR SCT008 SCT055 OVC100 23/23 A3000 RMK AO2 P0008 T02330228
KFFC 200108Z AUTO 14005KT 4SM RA BR SCT006 BKN020 OVC050 23/23 A3000 RMK AO2 P0003 T02330228
KFFC 200053Z AUTO 13005KT 4SM RA BR OVC020 23/23 A3001 RMK AO2 LTG DSNT SE AND NW TSB2357E17 SLP154 P0008 T02330228
KFFC 200023Z AUTO 14004KT 4SM -RA BR BKN021 BKN026 OVC048 24/23 A3000 RMK AO2 LTG DSNT SE AND S TSB2357E17 P0003 T02390228
KFFC 192357Z AUTO 10009KT 4SM -TSRA FEW016 BKN027 OVC039 25/22 A2999 RMK AO2 LTG DSNT SE AND S TSB57 P0000 T02500222
KFFC 192353Z AUTO VRB06KT 2 1/2SM VCTS -RA BR SCT016 BKN023 OVC041 25/23 A2998 RMK AO2 LTG DSNT SE AND S RAB2257 TSB2256E44 PRESRR SLP146 P0007 60007 T02500228 10333 20250 53020
KFFC 192346Z AUTO 00000KT 1 3/4SM VCTS RA BR BKN015 BKN023 OVC029 25/23 A2998 RMK AO2 LTG DSNT SE AND S RAB2257 TSB2256E44 PRESRR P0005 T02500233
KFFC 192344Z AUTO 00000KT 2SM VCTS RA BR SCT014 BKN018 OVC034 25/23 A2997 RMK AO2 LTG DSNT SE AND S RAB2257 TSB2256E44 P0004 T02500233
KFFC 192333Z AUTO 33005KT 5SM -TSRA BR BKN014 BKN020 OVC038 25/23 A2996 RMK AO2 LTG DSNT SE AND S RAB2257 TSB2256 P0001 T02500228
KFFC 192302Z AUTO 30011G17KT 10SM -TSRA OVC043 27/23 A2994 RMK AO2 LTG DSNT SE AND S RAB2257 TSB2256 P0000 T02670233
KFFC 192253Z AUTO 30010G14KT 10SM VCTS BKN045 OVC050 28/24 A2994 RMK AO2 LTG DSNT ALQDS SLP131 T02780239
KFFC 192230Z AUTO 01003KT 10SM VCTS SCT045 SCT055 28/25 A2993 RMK AO2 LTG DSNT ALQDS T02830250
KFFC 192153Z AUTO 00000KT 10SM FEW044 SCT060 31/23 A2993 RMK AO2 LTG DSNT SW AND W SLP128 T03060233
KFFC 192053Z AUTO 10008KT 10SM FEW042 FEW060 32/22 A2992 RMK AO2 LTG DSNT W AND NW SLP125 T03220217 56012
KFFC 191953Z AUTO 10008KT 10SM CLR 33/22 A2992 RMK AO2 SLP124 T03280222
KFFC 191853Z AUTO 09007KT 10SM FEW039 SCT050 BKN075 31/22 A2994 RMK AO2 SLP132 T03110222
KFFC 191753Z AUTO 09006KT 10SM FEW037 32/22 A2996 RMK AO2 SLP136 T03170222 10328 20244 58009
KFFC 191653Z AUTO 13006KT 10SM FEW030 SCT038 SCT050 31/23 A2999 RMK AO2 SLP146 T03110228
KFFC 191553Z AUTO 11008KT 10SM FEW025 31/23 A3000 RMK AO2 SLP149 T03060233
KFFC 191546Z AUTO 12008KT 10SM FEW025 31/24 A3000 RMK AO2 T03060239
KFFC 191524Z AUTO 13009KT 10SM BKN023 30/24 A2999 RMK AO2 T03000239
KFFC 191453Z AUTO 13009KT 10SM FEW022 30/24 A2999 RMK AO2 SLP146 T03000239 50000
KFFC 191353Z AUTO 12007KT 10SM CLR 28/23 A2999 RMK AO2 SLP147 T02830233
KFFC 191253Z AUTO 09005KT 10SM CLR 26/23 A2999 RMK AO2 SLP149 T02610228
KFFC 191153Z AUTO 00000KT 10SM CLR 24/22 A2999 RMK AO2 SLP147 T02440222 10244 20217 53013
KFFC 191053Z AUTO 00000KT 10SM CLR 22/21 A2997 RMK AO2 SLP139 T02170211
KFFC 190953Z AUTO 00000KT 10SM CLR 22/21 A2995 RMK AO2 SLP134 T02220211
KFFC 190853Z AUTO 00000KT 10SM CLR 22/21 A2995 RMK AO2 SLP133 T02220211 53000